Time,TemperatureF,DewpointF,PressureIn,WindDirection,WindDirectionDegrees,WindSpeedMPH,WindSpeedGustMPH,Humidity,HourlyPrecipIn,Conditions,Clouds,dailyrainin,SoftwareType,DateUTC
2013-04-25 00:05:00,44.8,28.7,29.93,South,185,6.0,6.0,53,0.00,,,0.00,Wunderground v.1.13,2013-04-25 05:05:00,
2013-04-25 00:15:00,44.5,28.4,29.93,SSW,196,6.0,6.0,53,0.00,,,0.00,Wunderground v.1.13,2013-04-25 05:15:00,
2013-04-25 00:25:00,44.3,28.2,29.92,SSW,198,4.0,13.0,53,0.00,,,0.00,Wunderground v.1.13,2013-04-25 05:25:00,
2013-04-25 00:30:00,44.2,29.0,29.92,South,182,5.0,13.0,55,0.00,,,0.00,Wunderground v.1.13,2013-04-25 05:30:00,
2013-04-25 00:35:00,44.1,28.9,29.92,South,184,6.0,6.0,55,0.00,,,0.00,Wunderground v.1.13,2013-04-25 05:35:00,
2013-04-25 00:45:00,43.9,29.2,29.92,WSW,249,4.0,16.0,56,0.00,,,0.00,Wunderground v.1.13,2013-04-25 05:45:00,
2013-04-25 00:55:00,43.9,29.2,29.91,South,191,6.0,16.0,56,0.00,,,0.00,Wunderground v.1.13,2013-04-25 05:55:00,
2013-04-25 01:05:00,44.2,29.5,29.91,SSW,211,5.0,15.0,56,0.00,,,0.00,Wunderground v.1.13,2013-04-25 06:05:00,
2013-04-25 01:15:00,44.1,29.8,29.91,SSW,192,5.0,5.0,57,0.00,,,0.00,Wunderground v.1.13,2013-04-25 06:15:00,
2013-04-25 01:25:00,43.9,29.6,29.91,South,190,4.0,4.0,57,0.00,,,0.00,Wunderground v.1.13,2013-04-25 06:25:00,
2013-04-25 01:30:00,43.9,30.5,29.91,SW,230,5.0,15.0,59,0.00,,,0.00,Wunderground v.1.13,2013-04-25 06:30:00,
2013-04-25 01:40:00,43.6,31.0,29.91,SW,224,4.0,4.0,61,0.00,,,0.00,Wunderground v.1.13,2013-04-25 06:40:00,
2013-04-25 01:45:00,43.6,31.0,29.91,SSW,196,4.0,14.0,61,0.00,,,0.00,Wunderground v.1.13,2013-04-25 06:45:00,
2013-04-25 01:55:00,43.5,31.3,29.90,SSE,152,4.0,4.0,62,0.00,,,0.00,Wunderground v.1.13,2013-04-25 06:55:00,
2013-04-25 02:00:00,43.3,31.5,29.90,SSW,207,5.0,14.0,63,0.00,,,0.00,Wunderground v.1.13,2013-04-25 07:00:00,
2013-04-25 02:05:00,43.1,32.1,29.90,South,188,6.0,6.0,65,0.00,,,0.00,Wunderground v.1.13,2013-04-25 07:05:00,
2013-04-25 02:15:00,42.5,32.3,29.90,SSW,199,3.0,13.0,67,0.00,,,0.00,Wunderground v.1.13,2013-04-25 07:15:00,
2013-04-25 02:25:00,41.9,32.8,29.90,SW,227,5.0,13.0,70,0.00,,,0.00,Wunderground v.1.13,2013-04-25 07:25:00,
2013-04-25 02:30:00,41.6,32.5,29.90,SW,223,4.0,13.0,70,0.00,,,0.00,Wunderground v.1.13,2013-04-25 07:30:00,
2013-04-25 02:35:00,41.5,32.8,29.90,South,188,4.0,16.0,71,0.00,,,0.00,Wunderground v.1.13,2013-04-25 07:35:00,
2013-04-25 02:45:00,41.2,33.2,29.90,SSW,205,4.0,16.0,73,0.00,,,0.00,Wunderground v.1.13,2013-04-25 07:45:00,
2013-04-25 02:50:00,41.1,33.1,29.90,South,188,5.0,5.0,73,0.00,,,0.00,Wunderground v.1.13,2013-04-25 07:50:00,
2013-04-25 02:55:00,40.9,33.2,29.90,SSW,202,5.0,16.0,74,0.00,,,0.00,Wunderground v.1.13,2013-04-25 07:55:00,
2013-04-25 03:05:00,40.6,33.3,29.89,South,178,4.0,4.0,75,0.00,,,0.00,Wunderground v.1.13,2013-04-25 08:05:00,
2013-04-25 03:15:00,40.3,33.3,29.89,SSW,202,3.0,18.0,76,0.00,,,0.00,Wunderground v.1.13,2013-04-25 08:15:00,
2013-04-25 03:25:00,40.1,33.5,29.89,WSW,243,3.0,18.0,77,0.00,,,0.00,Wunderground v.1.13,2013-04-25 08:25:00,
2013-04-25 03:35:00,39.9,33.6,29.89,SW,229,3.0,19.0,78,0.00,,,0.00,Wunderground v.1.13,2013-04-25 08:35:00,
2013-04-25 03:45:00,40.1,34.1,29.90,SSW,207,3.0,3.0,79,0.00,,,0.00,Wunderground v.1.13,2013-04-25 08:45:00,
2013-04-25 03:50:00,40.2,34.2,29.90,West,279,5.0,19.0,79,0.00,,,0.00,Wunderground v.1.13,2013-04-25 08:50:00,
2013-04-25 04:00:00,38.3,33.6,29.92,SW,229,7.0,19.0,83,0.11,,,0.02,Wunderground v.1.13,2013-04-25 09:00:00,
2013-04-25 04:05:00,37.8,33.7,29.92,WSW,254,4.0,13.0,85,0.09,,,0.03,Wunderground v.1.13,2013-04-25 09:05:00,
2013-04-25 04:15:00,37.6,33.8,29.92,SW,224,3.0,13.0,86,0.08,,,0.04,Wunderground v.1.13,2013-04-25 09:15:00,
2013-04-25 04:25:00,37.3,34.1,29.92,WSW,248,2.0,13.0,88,0.04,,,0.04,Wunderground v.1.13,2013-04-25 09:25:00,
2013-04-25 04:35:00,37.6,34.4,29.92,WSW,254,3.0,3.0,88,0.00,,,0.04,Wunderground v.1.13,2013-04-25 09:35:00,
2013-04-25 04:40:00,37.8,34.6,29.93,WSW,254,2.0,2.0,88,0.00,,,0.04,Wunderground v.1.13,2013-04-25 09:40:00,
2013-04-25 04:50:00,37.9,34.7,29.93,WSW,254,1.0,1.0,88,0.00,,,0.04,Wunderground v.1.13,2013-04-25 09:50:00,
2013-04-25 04:55:00,37.9,34.9,29.93,WSW,254,0.0,10.0,89,0.00,,,0.04,Wunderground v.1.13,2013-04-25 09:55:00,
2013-04-25 05:00:00,37.9,34.9,29.93,WSW,254,0.0,10.0,89,0.00,,,0.04,Wunderground v.1.13,2013-04-25 10:00:00,
2013-04-25 05:05:00,38.0,35.0,29.93,WSW,254,0.0,10.0,89,0.00,,,0.04,Wunderground v.1.13,2013-04-25 10:05:00,
2013-04-25 05:15:00,38.0,34.5,29.93,WNW,293,6.0,10.0,87,0.00,,,0.04,Wunderground v.1.13,2013-04-25 10:15:00,
2013-04-25 05:25:00,37.9,33.8,29.95,West,275,5.0,5.0,85,0.00,,,0.04,Wunderground v.1.13,2013-04-25 10:25:00,
2013-04-25 05:30:00,37.8,33.4,29.95,West,275,4.0,4.0,84,0.00,,,0.04,Wunderground v.1.13,2013-04-25 10:30:00,
2013-04-25 05:40:00,37.6,32.9,29.95,West,275,2.0,2.0,83,0.00,,,0.04,Wunderground v.1.13,2013-04-25 10:40:00,
2013-04-25 05:45:00,37.6,32.9,29.95,West,275,2.0,2.0,83,0.00,,,0.04,Wunderground v.1.13,2013-04-25 10:45:00,
2013-04-25 05:55:00,37.6,32.6,29.96,West,275,1.0,1.0,82,0.00,,,0.04,Wunderground v.1.13,2013-04-25 10:55:00,
2013-04-25 06:00:00,37.5,32.8,29.96,West,275,0.0,6.0,83,0.00,,,0.04,Wunderground v.1.13,2013-04-25 11:00:00,
2013-04-25 06:05:00,37.5,32.8,29.96,West,275,0.0,21.0,83,0.00,,,0.04,Wunderground v.1.13,2013-04-25 11:05:00,
2013-04-25 06:15:00,37.3,32.9,29.96,West,275,0.0,21.0,84,0.00,,,0.00,Wunderground v.1.13,2013-04-25 11:15:00,
2013-04-25 06:25:00,37.6,33.8,29.97,West,275,1.0,1.0,86,0.00,,,0.00,Wunderground v.1.13,2013-04-25 11:25:00,
2013-04-25 06:35:00,38.0,34.2,29.98,West,277,3.0,6.0,86,0.00,,,0.00,Wunderground v.1.13,2013-04-25 11:35:00,
2013-04-25 06:45:00,36.6,32.8,29.98,WNW,294,7.0,8.0,86,0.12,,,0.02,Wunderground v.1.13,2013-04-25 11:45:00,
2013-04-25 06:55:00,35.8,32.3,29.98,West,281,3.0,3.0,87,0.05,,,0.03,Wunderground v.1.13,2013-04-25 11:55:00,
2013-04-25 07:05:00,35.9,33.0,30.00,West,281,3.0,10.0,89,0.08,,,0.04,Wunderground v.1.13,2013-04-25 12:05:00,
2013-04-25 07:15:00,36.3,33.6,30.00,WNW,292,3.0,3.0,90,0.06,,,0.05,Wunderground v.1.13,2013-04-25 12:15:00,
2013-04-25 07:25:00,36.8,34.1,30.00,West,278,6.0,10.0,90,0.04,,,0.06,Wunderground v.1.13,2013-04-25 12:25:00,
2013-04-25 07:35:00,37.2,34.3,30.01,WNW,295,6.0,14.0,89,0.04,,,0.06,Wunderground v.1.13,2013-04-25 12:35:00,
2013-04-25 07:45:00,37.6,34.4,30.01,WSW,257,7.0,7.0,88,0.00,,,0.06,Wunderground v.1.13,2013-04-25 12:45:00,
2013-04-25 07:55:00,38.0,34.5,30.02,WNW,284,6.0,6.0,87,0.00,,,0.07,Wunderground v.1.13,2013-04-25 12:55:00,
2013-04-25 08:00:00,38.2,34.4,30.02,WNW,290,5.0,14.0,86,0.00,,,0.07,Wunderground v.1.13,2013-04-25 13:00:00,
2013-04-25 08:05:00,38.3,34.2,30.03,West,263,5.0,12.0,85,0.00,,,0.07,Wunderground v.1.13,2013-04-25 13:05:00,
2013-04-25 08:15:00,38.5,34.4,30.03,West,271,5.0,12.0,85,0.00,,,0.07,Wunderground v.1.13,2013-04-25 13:15:00,
2013-04-25 08:25:00,39.5,34.5,30.03,West,265,7.0,12.0,82,0.00,,,0.07,Wunderground v.1.13,2013-04-25 13:25:00,
2013-04-25 08:30:00,39.9,34.2,30.03,NW,309,8.0,12.0,80,0.00,,,0.07,Wunderground v.1.13,2013-04-25 13:30:00,
2013-04-25 08:40:00,40.5,34.2,30.04,WSW,249,8.0,8.0,78,0.00,,,0.07,Wunderground v.1.13,2013-04-25 13:40:00,
2013-04-25 08:45:00,40.5,34.2,30.04,WNW,287,9.0,9.0,78,0.00,,,0.07,Wunderground v.1.13,2013-04-25 13:45:00,
2013-04-25 08:55:00,41.1,33.4,30.04,WNW,282,9.0,13.0,74,0.00,,,0.07,Wunderground v.1.13,2013-04-25 13:55:00,
2013-04-25 09:00:00,41.5,33.5,30.04,NW,312,10.0,10.0,73,0.00,,,0.07,Wunderground v.1.13,2013-04-25 14:00:00,
2013-04-25 09:05:00,42.1,34.4,30.05,NW,312,8.0,8.0,74,0.00,,,0.07,Wunderground v.1.13,2013-04-25 14:05:00,
2013-04-25 09:15:00,42.2,33.1,30.05,West,263,9.0,16.0,70,0.00,,,0.07,Wunderground v.1.13,2013-04-25 14:15:00,
2013-04-25 09:25:00,41.8,32.4,30.06,WNW,283,9.0,9.0,69,0.00,,,0.07,Wunderground v.1.13,2013-04-25 14:25:00,
2013-04-25 09:30:00,41.9,32.8,30.06,WSW,258,8.0,8.0,70,0.00,,,0.07,Wunderground v.1.13,2013-04-25 14:30:00,
2013-04-25 09:40:00,42.1,33.4,30.06,WSW,258,8.0,8.0,71,0.00,,,0.07,Wunderground v.1.13,2013-04-25 14:40:00,
2013-04-25 09:45:00,41.9,33.2,30.06,West,259,8.0,8.0,71,0.00,,,0.07,Wunderground v.1.13,2013-04-25 14:45:00,
2013-04-25 09:55:00,41.5,31.7,30.07,WNW,284,9.0,19.0,68,0.00,,,0.07,Wunderground v.1.13,2013-04-25 14:55:00,
2013-04-25 10:05:00,42.2,32.8,30.07,WNW,285,9.0,9.0,69,0.00,,,0.07,Wunderground v.1.13,2013-04-25 15:05:00,
2013-04-25 10:15:00,43.6,32.6,30.07,WNW,292,10.0,20.0,65,0.00,,,0.07,Wunderground v.1.13,2013-04-25 15:15:00,
2013-04-25 10:25:00,43.6,32.2,30.08,NW,307,11.0,20.0,64,0.00,,,0.07,Wunderground v.1.13,2013-04-25 15:25:00,
2013-04-25 10:30:00,43.5,32.5,30.08,West,281,11.0,11.0,65,0.00,,,0.07,Wunderground v.1.13,2013-04-25 15:30:00,
2013-04-25 10:40:00,43.9,31.3,30.09,WNW,294,9.0,20.0,61,0.00,,,0.07,Wunderground v.1.13,2013-04-25 15:40:00,
2013-04-25 10:45:00,44.1,31.9,30.09,West,278,9.0,9.0,62,0.00,,,0.07,Wunderground v.1.13,2013-04-25 15:45:00,
2013-04-25 10:55:00,45.4,31.0,30.09,WNW,296,8.0,20.0,57,0.00,,,0.07,Wunderground v.1.13,2013-04-25 15:55:00,
2013-04-25 11:05:00,46.0,30.7,30.10,West,274,8.0,8.0,55,0.00,,,0.07,Wunderground v.1.13,2013-04-25 16:05:00,
2013-04-25 11:15:00,45.4,29.7,30.10,WNW,292,9.0,9.0,54,0.00,,,0.07,Wunderground v.1.13,2013-04-25 16:15:00,
2013-04-25 11:25:00,45.1,29.0,30.10,West,262,8.0,21.0,53,0.00,,,0.07,Wunderground v.1.13,2013-04-25 16:25:00,
2013-04-25 11:30:00,45.7,29.1,30.10,West,260,7.0,7.0,52,0.00,,,0.07,Wunderground v.1.13,2013-04-25 16:30:00,
2013-04-25 11:40:00,46.4,29.7,30.10,West,262,7.0,18.0,52,0.00,,,0.07,Wunderground v.1.13,2013-04-25 16:40:00,
2013-04-25 11:45:00,46.2,30.0,30.10,NW,308,8.0,18.0,53,0.00,,,0.07,Wunderground v.1.13,2013-04-25 16:45:00,
2013-04-25 11:55:00,46.4,28.3,30.11,WSW,258,8.0,18.0,49,0.00,,,0.07,Wunderground v.1.13,2013-04-25 16:55:00,
2013-04-25 12:00:00,47.0,29.3,30.11,West,269,8.0,18.0,50,0.00,,,0.07,Wunderground v.1.13,2013-04-25 17:00:00,
2013-04-25 12:05:00,46.4,29.7,30.12,West,268,7.0,18.0,52,0.00,,,0.07,Wunderground v.1.13,2013-04-25 17:05:00,
2013-04-25 12:15:00,46.4,28.8,30.12,WNW,296,6.0,6.0,50,0.00,,,0.07,Wunderground v.1.13,2013-04-25 17:15:00,
2013-04-25 12:20:00,46.8,26.6,30.12,West,271,7.0,7.0,45,0.00,,,0.07,Wunderground v.1.13,2013-04-25 17:20:00,
2013-04-25 12:30:00,46.5,28.3,30.12,WNW,298,7.0,18.0,49,0.00,,,0.07,Wunderground v.1.13,2013-04-25 17:30:00,
2013-04-25 12:40:00,46.4,27.8,30.12,West,279,6.0,18.0,48,0.00,,,0.07,Wunderground v.1.13,2013-04-25 17:40:00,
2013-04-25 12:45:00,46.2,28.1,30.12,West,265,6.0,18.0,49,0.00,,,0.07,Wunderground v.1.13,2013-04-25 17:45:00,
2013-04-25 12:50:00,46.7,28.5,30.12,West,265,7.0,7.0,49,0.00,,,0.07,Wunderground v.1.13,2013-04-25 17:50:00,
2013-04-25 12:55:00,48.0,29.7,30.12,WSW,257,6.0,18.0,49,0.00,,,0.07,Wunderground v.1.13,2013-04-25 17:55:00,
2013-04-25 13:05:00,48.3,27.4,30.13,West,265,6.0,6.0,44,0.00,,,0.07,Wunderground v.1.13,2013-04-25 18:05:00,
2013-04-25 13:15:00,47.1,27.4,30.13,WNW,290,7.0,14.0,46,0.00,,,0.07,Wunderground v.1.13,2013-04-25 18:15:00,
2013-04-25 13:25:00,47.6,28.3,30.13,West,271,6.0,14.0,47,0.00,,,0.07,Wunderground v.1.13,2013-04-25 18:25:00,
2013-04-25 13:35:00,48.5,28.6,30.13,West,266,8.0,8.0,46,0.00,,,0.07,Wunderground v.1.13,2013-04-25 18:35:00,
2013-04-25 13:40:00,49.1,29.2,30.13,SSW,213,7.0,7.0,46,0.00,,,0.07,Wunderground v.1.13,2013-04-25 18:40:00,
2013-04-25 13:50:00,49.4,27.8,30.13,WSW,248,7.0,15.0,43,0.00,,,0.07,Wunderground v.1.13,2013-04-25 18:50:00,
2013-04-25 14:00:00,48.5,27.0,30.14,WNW,289,8.0,15.0,43,0.00,,,0.07,Wunderground v.1.13,2013-04-25 19:00:00,
2013-04-25 14:05:00,48.9,27.9,30.14,SW,236,6.0,6.0,44,0.00,,,0.07,Wunderground v.1.13,2013-04-25 19:05:00,
2013-04-25 14:15:00,49.9,28.8,30.14,West,260,6.0,6.0,44,0.00,,,0.07,Wunderground v.1.13,2013-04-25 19:15:00,
2013-04-25 14:20:00,50.1,28.4,30.15,West,263,7.0,7.0,43,0.00,,,0.07,Wunderground v.1.13,2013-04-25 19:20:00,
2013-04-25 14:30:00,48.5,28.6,30.15,West,280,7.0,14.0,46,0.00,,,0.07,Wunderground v.1.13,2013-04-25 19:30:00,
2013-04-25 14:40:00,49.8,28.2,30.15,West,265,7.0,7.0,43,0.00,,,0.07,Wunderground v.1.13,2013-04-25 19:40:00,
2013-04-25 14:50:00,50.2,28.0,30.15,West,271,7.0,7.0,42,0.00,,,0.07,Wunderground v.1.13,2013-04-25 19:50:00,
2013-04-25 15:00:00,50.2,28.0,30.15,West,259,7.0,20.0,42,0.00,,,0.07,Wunderground v.1.13,2013-04-25 20:00:00,
2013-04-25 15:05:00,50.1,28.4,30.15,West,266,9.0,14.0,43,0.00,,,0.07,Wunderground v.1.13,2013-04-25 20:05:00,
2013-04-25 15:15:00,51.3,30.1,30.15,West,267,5.0,14.0,44,0.00,,,0.07,Wunderground v.1.13,2013-04-25 20:15:00,
2013-04-25 15:25:00,51.0,27.5,30.15,WSW,254,5.0,14.0,40,0.00,,,0.07,Wunderground v.1.13,2013-04-25 20:25:00,
2013-04-25 15:35:00,50.4,27.0,30.15,West,261,7.0,7.0,40,0.00,,,0.07,Wunderground v.1.13,2013-04-25 20:35:00,
2013-04-25 15:45:00,49.8,26.4,30.15,West,265,5.0,5.0,40,0.00,,,0.07,Wunderground v.1.13,2013-04-25 20:45:00,
2013-04-25 15:55:00,50.2,26.8,30.15,West,259,6.0,6.0,40,0.00,,,0.07,Wunderground v.1.13,2013-04-25 20:55:00,
2013-04-25 16:00:00,50.5,27.7,30.15,West,263,4.0,18.0,41,0.00,,,0.07,Wunderground v.1.13,2013-04-25 21:00:00,
2013-04-25 16:05:00,51.4,28.5,30.15,West,273,4.0,4.0,41,0.00,,,0.07,Wunderground v.1.13,2013-04-25 21:05:00,
2013-04-25 16:15:00,50.2,26.8,30.15,WSW,252,6.0,6.0,40,0.00,,,0.07,Wunderground v.1.13,2013-04-25 21:15:00,
2013-04-25 16:25:00,49.1,25.8,30.16,West,264,5.0,5.0,40,0.00,,,0.07,Wunderground v.1.13,2013-04-25 21:25:00,
2013-04-25 16:30:00,49.5,27.3,30.16,SW,227,6.0,6.0,42,0.00,,,0.07,Wunderground v.1.13,2013-04-25 21:30:00,
2013-04-25 16:40:00,49.8,25.8,30.15,West,270,4.0,14.0,39,0.00,,,0.07,Wunderground v.1.13,2013-04-25 21:40:00,
2013-04-25 16:45:00,49.2,25.9,30.15,West,261,5.0,5.0,40,0.00,,,0.07,Wunderground v.1.13,2013-04-25 21:45:00,
2013-04-25 16:50:00,48.9,26.2,30.16,West,279,5.0,5.0,41,0.00,,,0.07,Wunderground v.1.13,2013-04-25 21:50:00,
2013-04-25 16:55:00,49.2,25.9,30.16,WNW,292,5.0,5.0,40,0.00,,,0.07,Wunderground v.1.13,2013-04-25 21:55:00,
2013-04-25 17:05:00,50.2,26.8,30.16,West,273,4.0,4.0,40,0.00,,,0.07,Wunderground v.1.13,2013-04-25 22:05:00,
2013-04-25 17:15:00,50.1,26.7,30.16,West,269,5.0,5.0,40,0.00,,,0.07,Wunderground v.1.13,2013-04-25 22:15:00,
2013-04-25 17:25:00,50.1,26.1,30.16,West,266,2.0,2.0,39,0.00,,,0.07,Wunderground v.1.13,2013-04-25 22:25:00,
2013-04-25 17:30:00,50.2,26.2,30.16,WSW,254,2.0,2.0,39,0.00,,,0.07,Wunderground v.1.13,2013-04-25 22:30:00,
2013-04-25 17:40:00,49.6,25.0,30.16,West,269,3.0,3.0,38,0.00,,,0.07,Wunderground v.1.13,2013-04-25 22:40:00,
2013-04-25 17:45:00,49.6,26.2,30.16,West,259,2.0,11.0,40,0.00,,,0.07,Wunderground v.1.13,2013-04-25 22:45:00,
2013-04-25 17:55:00,49.8,25.8,30.16,SW,217,3.0,11.0,39,0.00,,,0.07,Wunderground v.1.13,2013-04-25 22:55:00,
2013-04-25 18:05:00,49.8,25.2,30.16,West,265,6.0,10.0,38,0.00,,,0.07,Wunderground v.1.13,2013-04-25 23:05:00,
2013-04-25 18:15:00,49.4,24.8,30.16,West,274,5.0,5.0,38,0.00,,,0.07,Wunderground v.1.13,2013-04-25 23:15:00,
2013-04-25 18:25:00,49.2,25.3,30.17,WNW,289,3.0,10.0,39,0.00,,,0.07,Wunderground v.1.13,2013-04-25 23:25:00,
2013-04-25 18:35:00,49.5,26.7,30.17,West,259,2.0,13.0,41,0.00,,,0.07,Wunderground v.1.13,2013-04-25 23:35:00,
2013-04-25 18:40:00,49.2,25.9,30.17,West,260,1.0,1.0,40,0.00,,,0.07,Wunderground v.1.13,2013-04-25 23:40:00,
2013-04-25 18:50:00,49.4,26.7,30.17,WSW,253,0.0,13.0,41,0.00,,,0.07,Wunderground v.1.13,2013-04-25 23:50:00,
2013-04-25 18:55:00,49.2,26.5,30.17,SW,229,1.0,1.0,41,0.00,,,0.07,Wunderground v.1.13,2013-04-25 23:55:00,
2013-04-25 19:00:00,49.4,26.1,30.17,SW,227,1.0,1.0,40,0.00,,,0.07,Wunderground v.1.13,2013-04-26 00:00:00,
2013-04-25 19:05:00,49.2,26.5,30.16,SW,228,0.0,12.0,41,0.00,,,0.07,Wunderground v.1.13,2013-04-26 00:05:00,
2013-04-25 19:15:00,48.5,26.4,30.16,WSW,249,0.0,12.0,42,0.00,,,0.07,Wunderground v.1.13,2013-04-26 00:15:00,
2013-04-25 19:25:00,47.7,26.8,30.17,South,176,1.0,1.0,44,0.00,,,0.07,Wunderground v.1.13,2013-04-26 00:25:00,
2013-04-25 19:30:00,47.4,27.1,30.17,South,176,0.0,12.0,45,0.00,,,0.07,Wunderground v.1.13,2013-04-26 00:30:00,
2013-04-25 19:40:00,46.8,27.1,30.17,South,176,0.0,7.0,46,0.00,,,0.07,Wunderground v.1.13,2013-04-26 00:40:00,
2013-04-25 19:45:00,46.5,26.8,30.17,South,176,0.0,7.0,46,0.00,,,0.07,Wunderground v.1.13,2013-04-26 00:45:00,
2013-04-25 19:50:00,46.2,27.6,30.17,South,176,0.0,7.0,48,0.00,,,0.07,Wunderground v.1.13,2013-04-26 00:50:00,
2013-04-25 19:55:00,45.8,27.2,30.17,South,176,0.0,7.0,48,0.00,,,0.07,Wunderground v.1.13,2013-04-26 00:55:00,
2013-04-25 20:05:00,45.1,27.1,30.17,South,176,0.0,6.0,49,0.00,,,0.07,Wunderground v.1.13,2013-04-26 01:05:00,
2013-04-25 20:15:00,44.1,27.1,30.17,South,176,0.0,6.0,51,0.00,,,0.07,Wunderground v.1.13,2013-04-26 01:15:00,
2013-04-25 20:20:00,43.6,26.6,30.17,South,176,0.0,6.0,51,0.00,,,0.07,Wunderground v.1.13,2013-04-26 01:20:00,
2013-04-25 20:30:00,43.1,27.1,30.17,South,176,0.0,6.0,53,0.00,,,0.07,Wunderground v.1.13,2013-04-26 01:30:00,
2013-04-25 20:35:00,42.6,26.6,30.17,South,176,0.0,1.0,53,0.00,,,0.07,Wunderground v.1.13,2013-04-26 01:35:00,
2013-04-25 20:45:00,42.1,27.1,30.17,South,176,0.0,1.0,55,0.00,,,0.07,Wunderground v.1.13,2013-04-26 01:45:00,
2013-04-25 20:50:00,41.8,27.2,30.17,South,176,0.0,1.0,56,0.00,,,0.07,Wunderground v.1.13,2013-04-26 01:50:00,
2013-04-25 20:55:00,41.5,27.4,30.18,South,176,0.0,1.0,57,0.00,,,0.07,Wunderground v.1.13,2013-04-26 01:55:00,
2013-04-25 21:05:00,41.2,27.5,30.19,South,176,0.0,0.0,58,0.00,,,0.07,Wunderground v.1.13,2013-04-26 02:05:00,
2013-04-25 21:15:00,40.8,27.6,30.19,South,176,0.0,0.0,59,0.00,,,0.07,Wunderground v.1.13,2013-04-26 02:15:00,
2013-04-25 21:25:00,40.2,27.8,30.20,South,176,0.0,0.0,61,0.00,,,0.07,Wunderground v.1.13,2013-04-26 02:25:00,
2013-04-25 21:30:00,39.8,27.8,30.20,South,176,0.0,0.0,62,0.00,,,0.07,Wunderground v.1.13,2013-04-26 02:30:00,
2013-04-25 21:40:00,39.2,28.0,30.20,South,176,0.0,0.0,64,0.00,,,0.07,Wunderground v.1.13,2013-04-26 02:40:00,
2013-04-25 21:45:00,39.1,28.3,30.20,South,176,0.0,0.0,65,0.00,,,0.07,Wunderground v.1.13,2013-04-26 02:45:00,
2013-04-25 21:50:00,38.9,28.5,30.20,South,176,0.0,0.0,66,0.00,,,0.07,Wunderground v.1.13,2013-04-26 02:50:00,
2013-04-25 21:55:00,38.8,28.4,30.21,South,176,0.0,0.0,66,0.00,,,0.07,Wunderground v.1.13,2013-04-26 02:55:00,
2013-04-25 22:00:00,38.5,28.5,30.21,South,176,0.0,0.0,67,0.00,,,0.07,Wunderground v.1.13,2013-04-26 03:00:00,
2013-04-25 22:05:00,38.3,28.3,30.21,South,176,0.0,0.0,67,0.00,,,0.07,Wunderground v.1.13,2013-04-26 03:05:00,
2013-04-25 22:15:00,37.9,28.6,30.21,South,176,0.0,0.0,69,0.00,,,0.07,Wunderground v.1.13,2013-04-26 03:15:00,
2013-04-25 22:20:00,37.6,28.7,30.21,South,176,0.0,0.0,70,0.00,,,0.07,Wunderground v.1.13,2013-04-26 03:20:00,
2013-04-25 22:30:00,37.0,28.1,30.21,South,176,0.0,0.0,70,0.00,,,0.07,Wunderground v.1.13,2013-04-26 03:30:00,
2013-04-25 22:35:00,36.9,28.4,30.21,South,176,0.0,0.0,71,0.00,,,0.07,Wunderground v.1.13,2013-04-26 03:35:00,
2013-04-25 22:45:00,36.3,28.1,30.22,South,176,0.0,0.0,72,0.00,,,0.07,Wunderground v.1.13,2013-04-26 03:45:00,
2013-04-25 22:50:00,36.2,28.4,30.22,South,176,0.0,0.0,73,0.00,,,0.07,Wunderground v.1.13,2013-04-26 03:50:00,
2013-04-25 23:00:00,35.8,28.3,30.22,South,176,0.0,0.0,74,0.00,,,0.07,Wunderground v.1.13,2013-04-26 04:00:00,
2013-04-25 23:05:00,35.6,28.1,30.22,South,176,0.0,0.0,74,0.00,,,0.07,Wunderground v.1.13,2013-04-26 04:05:00,
2013-04-25 23:10:00,35.5,28.4,30.22,South,176,0.0,0.0,75,0.00,,,0.07,Wunderground v.1.13,2013-04-26 04:10:00,
2013-04-25 23:15:00,35.5,28.4,30.22,South,176,0.0,0.0,75,0.00,,,0.07,Wunderground v.1.13,2013-04-26 04:15:00,
2013-04-25 23:25:00,35.5,28.7,30.22,South,176,0.0,0.0,76,0.00,,,0.07,Wunderground v.1.13,2013-04-26 04:25:00,
2013-04-25 23:30:00,35.5,28.7,30.22,South,176,0.0,0.0,76,0.00,,,0.07,Wunderground v.1.13,2013-04-26 04:30:00,
2013-04-25 23:35:00,35.3,28.5,30.22,South,176,0.0,0.0,76,0.00,,,0.07,Wunderground v.1.13,2013-04-26 04:35:00,
2013-04-25 23:45:00,34.9,28.1,30.22,South,176,0.0,0.0,76,0.00,,,0.07,Wunderground v.1.13,2013-04-26 04:45:00,
2013-04-25 23:50:00,34.7,28.2,30.22,South,176,0.0,0.0,77,0.00,,,0.07,Wunderground v.1.13,2013-04-26 04:50:00,